Chicago, Illinois
Current Conditions -  °F | °C
As of 5:53 PM on Thursday 27 Nov 2014 (Local Time) from KMDW Reporting Station
Light Snow Light Snow  
Wind Chill: 12°   Ceiling: 3300
Heat Index: 24°   Visibility: 10mi
Dew Point: 13°   Wind: 13mph
Humidity: 62%   Direction: 340°NNW
Pressure: 30.4"   Gusts: NA
Location:  41.88°N, 87.63°W
Report Text: KMDW 272353Z 34011KT 10SM -SN BKN033 OVC039 M04/M11 A3040 RMK AO2 SLP310 P0000 60000 T10441106 11017 21044 51013
Loading
Personal Weather Stations






























Interactive Weather Map New forecast layout! Learn more

10-Day Weather Forecast

Advertisements
Track Severe Weather on mobile